Latest Coastal Weather Observations for Frederick Reef

IDQ60701

Issued at 2:32 am EST Friday 5 March 2021 (issued every 10 minutes, with the page automatically refreshed every 10 minutes)

About coastal observations | Map of coastal stations | Coastal observations for QLD | Marine services | Other Formats
Station Details ID: 200701 Name: FREDERICK REEF Lat: -20.94 Lon: 154.40 Height: 4.9 m
Data from the previous 72 hours. | See also: Recent months at Frederick Reef
Date/Time
EST
Wind Sea
Height
m
Swell Vis
km
Cloud Weather Temp
°C
Press
MSL
hPa
Rain since
9am
mm
Dir  Spd
kts
Gust
kts
Height
m
Period
s
Dir
05/02:30am SE 34 39 - - - - - - - 26.4 1000.7 -
05/02:00am SE 34 37 - - - - - - - 26.7 1001.3 -
05/01:30am SE 33 38 - - - - - - - 26.7 1001.5 -
05/01:03am ESE 25 36 - - - - - - - 25.8 1002.0 -
05/01:02am ESE 24 36 - - - - - - - 25.7 1002.0 -
05/01:00am ESE 23 26 - - - - - - - 25.7 1002.3 -
05/12:30am ESE 25 30 - - - - - - - 24.5 1002.7 -
05/12:00am ESE 23 27 - - - - - - - 24.6 1003.4 -
 
Date/Time
EST
Wind Sea
Height
m
Swell Vis
km
Cloud Weather Temp
°C
Press
MSL
hPa
Rain since
9am
mm
Dir  Spd
kts
Gust
kts
Height
m
Period
s
Dir
04/11:30pm E 22 27 - - - - - - - 23.7 1003.7 -
04/11:00pm ESE 22 25 - - - - - - - 24.2 1003.8 -
04/10:30pm SE 24 29 - - - - - - - 25.1 1004.0 -
04/10:00pm ESE 20 25 - - - - - - - 24.0 1004.4 -
04/09:41pm SE 25 29 - - - - - - - 24.2 - -
04/09:30pm ESE 23 27 - - - - - - - 26.5 1004.1 -
04/09:00pm ESE 21 24 - - - - - - - 26.1 1003.9 -
04/08:30pm E 23 25 - - - - - - - 26.2 1003.7 -
04/08:00pm ESE 25 30 - - - - - - - 26.0 1003.5 -
04/07:30pm E 28 32 - - - - - - - 26.0 1003.2 -
04/07:00pm ESE 26 29 - - - - - - - 26.1 1003.3 -
04/06:30pm ESE 29 33 - - - - - - - 25.6 1003.0 -
04/06:00pm ESE 24 26 - - - - - - - 24.6 1003.1 -
04/05:30pm SE 22 25 - - - - - - - 24.4 1003.2 -
04/05:00pm SE 23 27 - - - - - - - 25.1 1003.3 -
04/04:30pm SSE 23 27 - - - - - - - 26.1 1003.2 -
04/04:00pm SSE 25 30 - - - - - - - 26.7 1002.7 -
04/03:30pm SSE 31 35 - - - - - - - 26.4 1002.1 -
04/03:00pm SE 29 32 - - - - - - - 27.5 1002.0 -
04/02:30pm SE 25 32 - - - - - - - 26.6 1002.1 -
04/02:00pm SE 27 30 - - - - - - - 27.3 1002.4 -
04/01:30pm SE 27 30 - - - - - - - 27.5 1002.6 -
04/01:00pm SE 25 28 - - - - - - - 27.3 1002.7 -
04/12:30pm SE 24 28 - - - - - - - 27.4 1003.5 -
04/12:00pm SE 25 29 - - - - - - - 27.2 1003.6 -
04/11:30am SE 29 32 - - - - - - - 27.1 1003.8 -
04/11:00am SE 29 33 - - - - - - - 27.5 1003.9 -
04/10:30am ESE 28 31 - - - - - - - 27.5 1004.0 -
04/10:00am ESE 27 30 - - - - - - - 27.6 1004.0 -
04/09:47am ESE 25 30 - - - - - - - 27.3 1004.1 -
04/09:44am ESE 26 30 - - - - - - - 27.3 - -
04/09:30am E 20 24 - - - - - - - 26.7 1004.3 -
04/09:00am ENE 24 28 - - - - - - - 26.2 1004.3 -
04/08:54am E 23 28 - - - - - - - 26.7 1004.4 -
04/08:53am ENE 22 28 - - - - - - - 26.7 - -
04/08:30am ESE 21 26 - - - - - - - 27.0 1004.4 -
04/08:00am ESE 22 27 - - - - - - - 27.3 1004.2 -
04/07:30am ESE 28 33 - - - - - - - 27.2 1003.8 -
04/07:00am E 25 30 - - - - - - - 26.3 1003.6 -
04/06:42am E 24 35 - - - - - - - 25.5 1003.4 -
04/06:30am E 22 29 - - - - - - - 25.3 1003.5 -
04/06:14am ENE 21 25 - - - - - - - 25.9 - -
04/06:06am E 23 32 - - - - - - - 26.1 1003.3 -
04/06:02am E 22 32 - - - - - - - 27.3 - -
04/06:00am E 21 25 - - - - - - - 27.3 1003.4 -
04/05:30am ENE 23 27 - - - - - - - 25.4 1003.2 -
04/05:00am ENE 19 24 - - - - - - - 25.5 1003.0 -
04/04:30am ENE 21 25 - - - - - - - 25.5 1003.0 -
04/04:06am ENE 20 25 - - - - - - - 26.0 1002.8 -
04/04:00am E 23 28 - - - - - - - 26.3 1002.9 -
04/03:30am E 21 27 - - - - - - - 26.7 1002.8 -
04/03:17am E 22 25 - - - - - - - 25.9 - -
04/03:16am E 23 25 - - - - - - - 26.1 1002.9 -
04/03:00am ESE 23 26 - - - - - - - 27.6 1002.7 -
04/02:30am ESE 24 27 - - - - - - - 27.6 1002.8 -
04/02:00am ESE 23 26 - - - - - - - 27.6 1003.0 -
04/01:30am ESE 23 25 - - - - - - - 27.8 1003.4 -
04/01:00am ESE 23 25 - - - - - - - 27.6 1003.6 -
04/12:30am ESE 23 25 - - - - - - - 27.6 1003.8 -
04/12:00am ESE 23 25 - - - - - - - 27.8 1004.0 -
 
Date/Time
EST
Wind Sea
Height
m
Swell Vis
km
Cloud Weather Temp
°C
Press
MSL
hPa
Rain since
9am
mm
Dir  Spd
kts
Gust
kts
Height
m
Period
s
Dir
03/11:30pm ESE 19 23 - - - - - - - 27.5 1004.5 -
03/11:00pm E 15 16 - - - - - - - 26.2 1005.2 -
03/10:30pm ENE 16 19 - - - - - - - 25.8 1005.4 -
03/10:00pm E 12 14 - - - - - - - 25.5 1005.5 -
03/09:30pm E 16 22 - - - - - - - 25.5 1005.6 -
03/09:00pm E 13 15 - - - - - - - 25.6 1005.8 -
03/08:30pm ENE 14 16 - - - - - - - 25.4 1005.8 -
03/08:00pm NE 16 18 - - - - - - - 25.1 1005.6 -
03/07:30pm NE 20 22 - - - - - - - 25.2 1005.5 -
03/07:06pm E 21 23 - - - - - - - 26.5 1005.3 -
03/07:00pm ESE 20 22 - - - - - - - 27.9 1005.1 -
03/06:30pm SE 23 26 - - - - - - - 27.9 1004.5 -
03/06:00pm SE 21 24 - - - - - - - 27.8 1004.2 -
03/05:30pm SE 22 25 - - - - - - - 28.0 1004.1 -
03/05:00pm SE 22 26 - - - - - - - 27.7 1003.7 -
03/04:30pm SE 23 25 - - - - - - - 27.8 1003.4 -
03/04:00pm SE 23 25 - - - - - - - 27.8 1003.4 -
03/03:30pm SE 20 22 - - - - - - - 27.8 1003.5 -
03/03:00pm SE 21 23 - - - - - - - 27.8 1003.7 -
03/02:30pm ESE 20 22 - - - - - - - 27.8 1003.8 -
03/02:00pm ESE 20 23 - - - - - - - 27.8 1003.9 -
03/01:30pm ESE 19 22 - - - - - - - 27.8 1004.3 -
03/01:00pm ESE 19 21 - - - - - - - 27.4 1004.6 -
03/12:30pm ESE 18 21 - - - - - - - 27.9 1004.9 -
03/12:00pm ESE 17 20 - - - - - - - 27.7 1005.3 -
03/11:30am ESE 19 21 - - - - - - - 27.5 1005.5 -
03/11:00am ESE 17 19 - - - - - - - 27.5 1006.0 -
03/10:30am ESE 18 20 - - - - - - - 27.5 1006.1 -
03/10:00am ESE 19 21 - - - - - - - 27.4 1006.1 -
03/09:30am E 19 22 - - - - - - - 27.5 1005.9 -
03/09:00am ESE 19 21 - - - - - - - 27.5 1005.5 -
03/08:30am ESE 20 23 - - - - - - - 27.4 1005.3 -
03/08:00am ESE 21 23 - - - - - - - 27.1 1005.0 -
03/07:30am ESE 18 20 - - - - - - - 26.7 1004.9 -
03/07:00am ESE 22 25 - - - - - - - 26.4 1004.8 -
03/06:30am E 19 26 - - - - - - - 25.6 1004.6 -
03/06:28am E 19 26 - - - - - - - 25.5 1004.7 -
03/06:27am E 15 26 - - - - - - - 25.6 - -
03/06:00am ENE 22 25 - - - - - - - 26.3 1004.6 -
03/05:51am ENE 20 25 - - - - - - - 26.4 - -
03/05:49am ENE 20 25 - - - - - - - 26.6 1004.6 -
03/05:30am E 22 25 - - - - - - - 27.9 1004.5 -
03/05:00am E 22 25 - - - - - - - 27.8 1004.1 -
03/04:30am E 21 24 - - - - - - - 27.7 1004.2 -
03/04:00am E 21 24 - - - - - - - 27.6 1004.0 -
03/03:30am E 19 22 - - - - - - - 27.6 1004.0 -
03/03:00am ENE 22 25 - - - - - - - 27.5 1003.9 -
03/02:30am E 22 25 - - - - - - - 27.6 1003.7 -
03/02:00am E 24 28 - - - - - - - 27.6 1003.9 -
03/01:30am E 23 27 - - - - - - - 27.8 1004.2 -
03/01:00am E 24 27 - - - - - - - 27.8 1004.5 -
03/12:30am E 24 26 - - - - - - - 27.7 1004.7 -
03/12:00am E 25 29 - - - - - - - 27.5 1004.8 -
 
Date/Time
EST
Wind Sea
Height
m
Swell Vis
km
Cloud Weather Temp
°C
Press
MSL
hPa
Rain since
9am
mm
Dir  Spd
kts
Gust
kts
Height
m
Period
s
Dir
02/11:30pm E 25 29 - - - - - - - 27.5 1004.8 -
02/11:00pm E 25 28 - - - - - - - 27.5 1004.5 -
02/10:30pm E 22 25 - - - - - - - 27.5 1004.9 -
02/10:00pm E 23 26 - - - - - - - 27.4 1004.7 -
02/09:30pm E 23 25 - - - - - - - 27.4 1005.2 -
02/09:00pm ESE 23 26 - - - - - - - 27.6 1005.5 -
02/08:30pm ESE 26 29 - - - - - - - 27.7 1005.2 -
02/08:00pm E 24 28 - - - - - - - 27.7 1005.4 -
02/07:30pm ESE 24 27 - - - - - - - 27.8 1005.3 -
02/07:00pm ESE 26 30 - - - - - - - 27.8 1004.8 -
02/06:30pm ESE 25 28 - - - - - - - 27.7 1004.2 -
02/06:00pm ESE 25 29 - - - - - - - 27.8 1004.1 -
02/05:30pm ESE 25 29 - - - - - - - 27.7 1003.6 -
02/05:00pm ESE 26 29 - - - - - - - 27.8 1003.5 -
02/04:30pm ESE 25 29 - - - - - - - 27.5 1003.2 -
02/04:00pm ESE 25 29 - - - - - - - 27.4 1003.1 -
02/03:30pm ESE 23 25 - - - - - - - 27.4 1003.5 -
02/03:00pm SE 24 26 - - - - - - - 27.4 1003.2 -
02/02:30pm ESE 22 25 - - - - - - - 26.9 1003.4 -
02/02:00pm ESE 21 25 - - - - - - - 27.0 1003.8 -
02/01:30pm ESE 22 24 - - - - - - - 27.7 1004.2 -
02/01:00pm ESE 22 25 - - - - - - - 27.6 1004.3 -
02/12:30pm E 22 25 - - - - - - - 27.6 1004.7 -
02/12:00pm E 21 24 - - - - - - - 27.5 1004.9 -
02/11:30am ESE 22 25 - - - - - - - 27.8 1005.2 -
02/11:00am ESE 22 25 - - - - - - - 27.8 1005.6 -
02/10:30am ESE 24 27 - - - - - - - 27.8 1005.5 -
02/10:00am ESE 22 26 - - - - - - - 27.7 1005.7 -
02/09:30am ESE 22 25 - - - - - - - 27.7 1005.8 -
02/09:00am E 22 24 - - - - - - - 27.8 1005.9 -
02/08:30am ESE 24 26 - - - - - - - 27.7 1005.5 -
02/08:00am ESE 25 28 - - - - - - - 27.4 1004.9 -
02/07:30am ESE 24 26 - - - - - - - 27.4 1004.9 -
02/07:00am ESE 25 29 - - - - - - - 27.6 1004.4 -
02/06:30am ESE 25 28 - - - - - - - 27.6 1004.3 -
02/06:00am ESE 26 29 - - - - - - - 27.5 1004.0 -
02/05:30am ESE 23 27 - - - - - - - 27.5 1004.1 -
02/05:00am ESE 23 27 - - - - - - - 27.5 1003.7 -
02/04:30am ESE 22 25 - - - - - - - 27.2 1003.8 -
02/04:00am ESE 25 27 - - - - - - - 27.0 1003.6 -
02/03:30am E 22 25 - - - - - - - 26.9 1003.5 -
02/03:00am ESE 23 25 - - - - - - - 26.6 1003.7 -

Other formats

Comma delimited format used in spreadsheet applications
http://www.bom.gov.au/fwo/IDQ60701/IDQ60701.94393.axf

JavaScript Object Notation format (JSON) in row-major order
http://www.bom.gov.au/fwo/IDQ60701/IDQ60701.94393.json

Data quality

Most of these data are generated automatically and are frequently updated. Quality checks on data are not normally performed. It is possible for incorrect values to appear. Refer to information at About Latest Weather Observations and please check the disclaimer before using these data.